Time;durP1;ratioP1;P1;durP2;ratioP2;P2;SDS_P1;SDS_P2;PMS_P1;PMS_P2;Temp;Humidity;BMP_temperature;BMP_pressure;BME280_temperature;BME280_humidity;BME280_pressure;Samples;Min_cycle;Max_cycle;Signal;HPM_P1;HPM_P2
2023/12/05 14:13:28;;;;;;;41.07;29.30;;;;;;;2.78;100.00;100298.56;5293332;27;20380;-71
2023/12/05 14:16:00;;;;;;;46.10;31.53;;;;;;;2.77;100.00;100296.91;5283399;28;20110;-72
2023/12/05 14:18:31;;;;;;;48.33;34.20;;;;;;;2.83;100.00;100298.44;5286039;28;20024;-72
2023/12/05 14:21:02;;;;;;;44.83;31.63;;;;;;;2.77;100.00;100302.06;5278799;28;20025;-73
2023/12/05 14:23:34;;;;;;;47.57;33.33;;;;;;;2.86;100.00;100312.06;5277285;28;20021;-73
2023/12/05 14:26:05;;;;;;;48.80;32.13;;;;;;;2.79;100.00;100320.97;5291630;28;20027;-75
2023/12/05 14:28:38;;;;;;;43.43;31.03;;;;;;;2.81;100.00;100318.34;5288395;28;20044;-71
2023/12/05 14:31:09;;;;;;;44.03;32.00;;;;;;;2.82;100.00;100326.03;5274343;28;20053;-70
2023/12/05 14:33:41;;;;;;;37.23;29.37;;;;;;;2.82;100.00;100331.22;5285952;28;20071;-73
2023/12/05 14:36:12;;;;;;;40.67;30.10;;;;;;;3.02;100.00;100338.25;5271394;28;20099;-75
2023/12/05 14:38:43;;;;;;;38.90;28.83;;;;;;;2.88;100.00;100330.97;5283037;28;20028;-74
2023/12/05 14:41:14;;;;;;;37.80;27.73;;;;;;;2.92;100.00;100352.41;5273767;28;20028;-71
2023/12/05 14:43:46;;;;;;;40.43;29.70;;;;;;;3.16;100.00;100351.59;5276048;28;20040;-74
2023/12/05 14:46:17;;;;;;;41.90;30.30;;;;;;;3.08;100.00;100352.69;5291656;28;20103;-72
2023/12/05 14:48:48;;;;;;;42.50;30.23;;;;;;;3.03;100.00;100349.44;5290248;28;20032;-75
2023/12/05 14:51:20;;;;;;;38.77;29.13;;;;;;;3.00;100.00;100365.09;5284913;28;20036;-81
2023/12/05 14:53:51;;;;;;;38.57;29.00;;;;;;;3.16;100.00;100377.47;5285594;28;20020;-71
2023/12/05 14:56:22;;;;;;;39.40;29.40;;;;;;;3.09;100.00;100374.25;5287197;28;20039;-70
2023/12/05 14:58:53;;;;;;;39.60;27.30;;;;;;;3.02;100.00;100373.59;5283158;28;20095;-72
2023/12/05 15:01:25;;;;;;;39.73;29.30;;;;;;;3.01;100.00;100382.28;5290865;28;20036;-71
2023/12/05 15:03:56;;;;;;;37.93;27.77;;;;;;;2.82;100.00;100377.75;5276697;28;20024;-71
2023/12/05 15:06:27;;;;;;;35.43;28.67;;;;;;;2.93;100.00;100381.72;5285072;28;20032;-71
2023/12/05 15:08:59;;;;;;;40.23;29.90;;;;;;;2.82;100.00;100387.25;5284868;28;20021;-71
2023/12/05 15:11:34;;;;;;;39.77;28.83;;;;;;;2.73;100.00;100386.69;5275588;28;20045;-69
2023/12/05 15:14:05;;;;;;;41.77;31.17;;;;;;;2.93;100.00;100394.66;5276076;28;20094;-69
2023/12/05 15:16:36;;;;;;;43.63;30.53;;;;;;;2.83;100.00;100396.72;5281961;28;20020;-71
2023/12/05 15:19:09;;;;;;;40.00;28.47;;;;;;;2.84;100.00;100401.84;5277389;28;20008;-71
2023/12/05 15:21:40;;;;;;;39.63;29.57;;;;;;;2.77;100.00;100406.38;5276270;28;20024;-71
2023/12/05 15:24:11;;;;;;;36.63;28.10;;;;;;;2.88;100.00;100412.94;5259092;28;20025;-72
2023/12/05 15:26:44;;;;;;;37.17;28.37;;;;;;;2.80;100.00;100422.66;5270628;28;20025;-71
2023/12/05 15:29:15;;;;;;;42.53;30.50;;;;;;;2.91;100.00;100428.34;5262472;28;20082;-71
2023/12/05 15:31:46;;;;;;;39.40;29.40;;;;;;;2.73;100.00;100416.88;5262737;28;20040;-72
2023/12/05 15:34:19;;;;;;;40.50;29.50;;;;;;;2.72;100.00;100430.69;5256191;28;20506;-72
2023/12/05 15:36:50;;;;;;;46.93;33.30;;;;;;;2.90;100.00;100444.72;5273545;28;20486;-72
2023/12/05 15:39:21;;;;;;;47.53;34.40;;;;;;;2.84;100.00;100439.78;5270818;28;20025;-72
2023/12/05 15:41:53;;;;;;;44.73;33.20;;;;;;;2.90;100.00;100444.72;5264486;28;20039;-72
2023/12/05 15:44:26;;;;;;;49.13;34.00;;;;;;;2.87;100.00;100456.03;5264658;28;20085;-71
2023/12/05 15:46:57;;;;;;;47.00;33.40;;;;;;;2.98;100.00;100454.84;5262698;28;20062;-71
2023/12/05 15:49:29;;;;;;;44.10;31.90;;;;;;;2.86;100.00;100456.91;5257846;28;20048;-72
2023/12/05 15:52:00;;;;;;;40.80;29.67;;;;;;;2.90;100.00;100462.84;5264432;28;20111;-74
2023/12/05 15:54:32;;;;;;;37.90;28.13;;;;;;;2.83;100.00;100456.22;5265073;28;20040;-74
2023/12/05 15:57:04;;;;;;;34.70;27.97;;;;;;;2.70;100.00;100466.97;5259704;28;20021;-75
2023/12/05 15:59:35;;;;;;;32.83;25.47;;;;;;;2.69;100.00;100464.44;5256756;28;20032;-71
2023/12/05 16:02:07;;;;;;;34.53;25.77;;;;;;;2.78;100.00;100475.31;5263499;28;20056;-74
2023/12/05 16:04:38;;;;;;;30.90;24.43;;;;;;;2.78;100.00;100467.53;5261834;28;20090;-75
2023/12/05 16:07:10;;;;;;;34.63;26.10;;;;;;;2.83;100.00;100475.13;5258085;28;20025;-75
2023/12/05 16:09:41;;;;;;;33.23;24.73;;;;;;;2.85;100.00;100486.28;5258121;28;20039;-75
2023/12/05 16:12:13;;;;;;;29.77;23.83;;;;;;;2.74;100.00;100484.03;5263215;28;20566;-76
2023/12/05 16:14:44;;;;;;;33.00;26.67;;;;;;;2.81;100.00;100478.69;5259760;28;20060;-76
2023/12/05 16:17:15;;;;;;;36.47;25.20;;;;;;;2.84;100.00;100489.78;5264864;28;20492;-75
2023/12/05 16:19:47;;;;;;;36.47;27.17;;;;;;;2.92;100.00;100489.50;5272742;28;20502;-75
2023/12/05 16:22:18;;;;;;;38.40;28.50;;;;;;;2.89;100.00;100493.06;5271726;28;20043;-75
2023/12/05 16:24:49;;;;;;;44.47;31.17;;;;;;;3.00;100.00;100502.19;5268990;28;20034;-73
2023/12/05 16:27:21;;;;;;;38.97;29.37;;;;;;;2.90;100.00;100499.91;5267038;28;20043;-76
2023/12/05 16:29:55;;;;;;;42.23;30.13;;;;;;;2.92;100.00;100515.38;5266760;28;20091;-76
2023/12/05 16:32:26;;;;;;;37.03;27.23;;;;;;;2.59;100.00;100506.09;5263771;28;20032;-77
2023/12/05 16:34:57;;;;;;;37.90;28.63;;;;;;;2.66;100.00;100507.59;5265576;28;20029;-72
2023/12/05 16:37:28;;;;;;;38.20;28.77;;;;;;;2.77;100.00;100514.16;5263081;28;20021;-73
2023/12/05 16:40:00;;;;;;;37.13;28.50;;;;;;;2.72;100.00;100514.31;5274710;28;20103;-74
2023/12/05 16:42:31;;;;;;;36.40;27.57;;;;;;;2.66;100.00;100517.06;5268154;28;20009;-83
2023/12/05 16:45:03;;;;;;;36.10;26.83;;;;;;;2.76;100.00;100522.78;5265450;28;20021;-85
2023/12/05 16:47:34;;;;;;;32.40;25.33;;;;;;;2.70;100.00;100510.06;5271442;28;20486;-74
2023/12/05 16:50:06;;;;;;;34.87;23.83;;;;;;;2.85;100.00;100514.75;5269952;28;20029;-77
2023/12/05 16:52:38;;;;;;;33.30;25.27;;;;;;;2.77;100.00;100517.59;5265023;28;20036;-76
2023/12/05 16:55:09;;;;;;;31.40;22.83;;;;;;;2.56;100.00;100505.34;5275488;28;20026;-78
2023/12/05 16:57:40;;;;;;;32.03;24.73;;;;;;;2.73;100.00;100528.91;5274438;28;20071;-77
2023/12/05 17:00:12;;;;;;;32.27;25.03;;;;;;;2.65;100.00;100523.16;5270084;28;20029;-79
2023/12/05 17:02:43;;;;;;;37.70;27.13;;;;;;;2.71;100.00;100535.88;5263236;28;20025;-76
2023/12/05 17:05:15;;;;;;;35.03;25.73;;;;;;;2.76;100.00;100533.13;5273292;28;20027;-70
2023/12/05 17:07:46;;;;;;;37.33;27.43;;;;;;;2.71;100.00;100535.03;5275805;28;20127;-76
2023/12/05 17:10:17;;;;;;;38.97;28.37;;;;;;;2.72;100.00;100540.16;5274973;28;20028;-80
2023/12/05 17:12:49;;;;;;;37.67;28.60;;;;;;;2.73;100.00;100544.44;5274546;28;20098;-77
2023/12/05 17:15:20;;;;;;;35.33;27.37;;;;;;;2.56;100.00;100547.56;5275015;28;20103;-77
2023/12/05 17:17:51;;;;;;;39.30;29.13;;;;;;;2.64;100.00;100540.41;5263735;28;20115;-74
2023/12/05 17:20:23;;;;;;;40.03;27.10;;;;;;;2.68;100.00;100543.75;5256926;28;20033;-76
2023/12/05 17:22:56;;;;;;;40.53;29.20;;;;;;;2.68;100.00;100540.28;5275193;28;20475;-76
2023/12/05 17:25:28;;;;;;;42.67;30.85;;;;;;;2.77;100.00;100547.78;5261461;28;20115;-76
2023/12/05 17:27:59;;;;;;;47.77;32.00;;;;;;;2.76;100.00;100553.81;5260084;28;20439;-76
2023/12/05 17:30:31;;;;;;;42.07;30.77;;;;;;;2.77;100.00;100565.88;5259253;28;20048;-75
2023/12/05 17:33:02;;;;;;;43.70;32.27;;;;;;;2.80;100.00;100568.38;5260463;28;20036;-78
2023/12/05 17:35:33;;;;;;;45.63;32.67;;;;;;;2.62;100.00;100559.44;5273043;28;20032;-78
2023/12/05 17:38:05;;;;;;;42.50;30.53;;;;;;;2.63;100.00;100549.06;5259008;28;20136;-75
2023/12/05 17:40:36;;;;;;;45.07;31.50;;;;;;;2.63;100.00;100564.56;5268759;28;20016;-76
2023/12/05 17:43:07;;;;;;;42.50;29.90;;;;;;;2.61;100.00;100566.34;5275457;28;20040;-75
2023/12/05 17:45:39;;;;;;;45.50;31.97;;;;;;;2.65;100.00;100582.63;5261372;28;20545;-79
2023/12/05 17:48:10;;;;;;;40.90;30.57;;;;;;;2.63;100.00;100582.69;5257050;28;20033;-76
2023/12/05 17:50:41;;;;;;;43.17;29.67;;;;;;;2.51;100.00;100596.78;5259180;28;20033;-72
2023/12/05 17:53:13;;;;;;;41.90;31.03;;;;;;;2.47;100.00;100602.13;5254261;28;20119;-74
2023/12/05 17:55:44;;;;;;;39.03;29.67;;;;;;;2.53;100.00;100604.53;5252499;28;20032;-76
2023/12/05 17:58:15;;;;;;;39.50;29.40;;;;;;;2.64;100.00;100602.47;5256651;28;20025;-78
2023/12/05 18:00:47;;;;;;;41.37;30.27;;;;;;;2.71;100.00;100612.59;5271420;28;20094;-74
2023/12/05 18:03:18;;;;;;;39.60;29.53;;;;;;;2.58;100.00;100613.00;5254152;28;20071;-75
2023/12/05 18:05:50;;;;;;;41.67;31.07;;;;;;;2.63;100.00;100613.72;5260704;28;20029;-75
2023/12/05 18:08:21;;;;;;;43.40;31.50;;;;;;;2.65;100.00;100614.47;5268102;28;20101;-74
2023/12/05 18:10:52;;;;;;;51.20;33.00;;;;;;;2.62;100.00;100614.59;5252715;28;20035;-74
2023/12/05 18:13:24;;;;;;;47.00;34.03;;;;;;;2.64;100.00;100623.16;5255965;28;20049;-78
2023/12/05 18:15:55;;;;;;;51.60;35.60;;;;;;;2.51;100.00;100622.66;5273057;28;20028;-78
2023/12/05 18:18:26;;;;;;;45.03;33.07;;;;;;;2.41;100.00;100623.81;5273413;28;20016;-73
2023/12/05 18:20:57;;;;;;;52.87;36.47;;;;;;;2.53;100.00;100620.88;5262111;28;20028;-74
2023/12/05 18:23:29;;;;;;;47.60;34.03;;;;;;;2.53;100.00;100620.88;5253540;28;20025;-77
2023/12/05 18:26:00;;;;;;;49.53;33.07;;;;;;;2.54;100.00;100626.91;5266501;28;20025;-79
2023/12/05 18:28:31;;;;;;;48.80;34.27;;;;;;;2.49;100.00;100629.63;5265312;28;20103;-83
2023/12/05 18:31:03;;;;;;;42.87;31.43;;;;;;;2.41;100.00;100622.09;5268808;28;20022;-80
2023/12/05 18:33:34;;;;;;;45.47;33.87;;;;;;;2.61;100.00;100630.16;5266648;28;20017;-74
2023/12/05 18:36:06;;;;;;;47.87;32.67;;;;;;;2.62;100.00;100637.00;5260071;28;20472;-79
2023/12/05 18:38:39;;;;;;;43.10;31.80;;;;;;;2.63;100.00;100634.41;5253531;28;20090;-75
2023/12/05 18:41:11;;;;;;;50.37;34.87;;;;;;;2.56;100.00;100643.22;5282655;28;20145;-78
2023/12/05 18:43:42;;;;;;;44.87;31.97;;;;;;;2.61;100.00;100649.09;5282278;28;20028;-72
2023/12/05 18:46:14;;;;;;;46.77;34.67;;;;;;;2.58;100.00;100649.19;5254782;28;20032;-76
2023/12/05 18:48:45;;;;;;;49.47;33.93;;;;;;;2.47;100.00;100649.50;5264987;28;20111;-82
2023/12/05 18:51:16;;;;;;;50.83;34.37;;;;;;;2.55;100.00;100662.19;5256776;28;20040;-75
2023/12/05 18:53:48;;;;;;;47.70;34.37;;;;;;;2.54;100.00;100666.53;5266736;28;20459;-73
2023/12/05 18:56:19;;;;;;;45.83;33.43;;;;;;;2.46;100.00;100660.72;5279515;28;20033;-74
2023/12/05 18:58:50;;;;;;;46.43;34.27;;;;;;;2.54;100.00;100669.13;5271027;28;20024;-73
2023/12/05 19:01:22;;;;;;;48.90;33.30;;;;;;;2.54;100.00;100669.13;5265956;28;20035;-74
2023/12/05 19:03:53;;;;;;;45.67;31.80;;;;;;;2.56;100.00;100681.16;5269211;28;20033;-76
2023/12/05 19:06:24;;;;;;;50.53;33.17;;;;;;;2.42;100.00;100675.50;5273949;28;20024;-74
2023/12/05 19:08:56;;;;;;;44.87;32.93;;;;;;;2.61;100.00;100676.69;5273591;28;20103;-75
2023/12/05 19:11:28;;;;;;;49.23;34.00;;;;;;;2.48;100.00;100683.97;5282826;28;20040;-73
2023/12/05 19:13:59;;;;;;;48.97;33.73;;;;;;;2.60;100.00;100687.94;5277383;28;20433;-75
2023/12/05 19:16:30;;;;;;;45.70;32.80;;;;;;;2.57;100.00;100693.16;5288145;28;20514;-75
2023/12/05 19:19:03;;;;;;;40.67;31.30;;;;;;;2.41;100.00;100689.28;5288789;28;20029;-74
2023/12/05 19:21:35;;;;;;;40.33;30.37;;;;;;;2.38;100.00;100694.56;5280188;28;20122;-72
2023/12/05 19:24:06;;;;;;;42.73;30.50;;;;;;;2.46;100.00;100690.91;5263276;28;20676;-73
2023/12/05 19:26:38;;;;;;;42.80;32.23;;;;;;;2.42;100.00;100679.81;5263985;28;20062;-73
2023/12/05 19:29:11;;;;;;;44.20;32.03;;;;;;;2.47;100.00;100695.19;5267895;28;20028;-74
2023/12/05 19:31:42;;;;;;;43.87;31.67;;;;;;;2.48;100.00;100691.72;5282726;28;20459;-73
2023/12/05 19:34:13;;;;;;;40.90;31.17;;;;;;;2.37;100.00;100702.34;5269001;28;20037;-73
2023/12/05 19:36:44;;;;;;;40.63;31.37;;;;;;;2.48;100.00;100700.31;5276919;28;20029;-73
2023/12/05 19:39:16;;;;;;;43.63;31.30;;;;;;;2.47;100.00;100705.53;5280409;28;20024;-73
2023/12/05 19:41:47;;;;;;;45.20;32.13;;;;;;;2.39;100.00;100703.16;5274109;28;20045;-73
2023/12/05 19:44:18;;;;;;;45.57;33.93;;;;;;;2.35;100.00;100702.41;5272152;28;20025;-74
2023/12/05 19:46:50;;;;;;;47.83;31.90;;;;;;;2.44;100.00;100708.19;5284120;28;20059;-72
2023/12/05 19:49:21;;;;;;;45.67;32.93;;;;;;;2.53;100.00;100711.38;5273412;28;20086;-73
2023/12/05 19:51:52;;;;;;;48.27;32.53;;;;;;;2.41;100.00;100711.69;5265584;28;20033;-77
2023/12/05 19:54:23;;;;;;;44.70;32.80;;;;;;;2.48;100.00;100720.16;5269731;28;20441;-73
2023/12/05 19:56:55;;;;;;;45.90;32.97;;;;;;;2.52;100.00;100711.41;5276538;28;20107;-73
2023/12/05 19:59:26;;;;;;;44.07;34.00;;;;;;;2.59;100.00;100718.09;5277411;28;20025;-73
2023/12/05 20:01:58;;;;;;;47.37;35.07;;;;;;;2.57;100.00;100722.47;5278295;28;20028;-72
2023/12/05 20:04:29;;;;;;;45.43;33.90;;;;;;;2.53;100.00;100715.72;5286817;28;20036;-72
2023/12/05 20:07:01;;;;;;;48.40;34.63;;;;;;;2.40;100.00;100718.63;5282306;28;20085;-73
2023/12/05 20:09:35;;;;;;;45.50;34.20;;;;;;;2.48;100.00;100720.16;5276621;28;20081;-77
2023/12/05 20:12:06;;;;;;;47.50;33.78;;;;;;;2.38;100.00;100723.00;5283278;28;20044;-73
2023/12/05 20:14:38;;;;;;;45.90;33.17;;;;;;;2.33;100.00;100717.09;5279763;28;20085;-73
2023/12/05 20:17:10;;;;;;;45.77;34.03;;;;;;;2.46;100.00;100712.41;5284351;28;20070;-72
2023/12/05 20:19:44;;;;;;;47.00;34.03;;;;;;;2.53;100.00;100728.63;5283067;28;20031;-72
2023/12/05 20:22:16;;;;;;;48.58;35.45;;;;;;;2.51;100.00;100730.41;5278425;28;20471;-71
2023/12/05 20:24:47;;;;;;;47.50;36.73;;;;;;;2.49;100.00;100730.47;5286624;28;20031;-73
2023/12/05 20:27:18;;;;;;;50.37;36.00;;;;;;;2.46;100.00;100737.44;5280548;28;20081;-73
2023/12/05 20:29:50;;;;;;;50.20;37.03;;;;;;;2.56;100.00;100738.88;5290079;28;20021;-73
2023/12/05 20:32:21;;;;;;;54.33;38.60;;;;;;;2.47;100.00;100737.41;5255311;28;20081;-72
2023/12/05 20:34:55;;;;;;;47.23;34.43;;;;;;;2.42;100.00;100744.44;5272815;28;20150;-71
2023/12/05 20:37:26;;;;;;;46.90;34.20;;;;;;;2.41;100.00;100746.16;5272336;28;20025;-74
2023/12/05 20:39:57;;;;;;;48.97;34.47;;;;;;;2.33;100.00;100752.44;5277068;28;20339;-71
2023/12/05 20:42:29;;;;;;;48.87;35.90;;;;;;;2.43;100.00;100756.47;5278346;28;20031;-72
2023/12/05 20:45:01;;;;;;;48.47;35.73;;;;;;;2.39;100.00;100753.09;5277175;28;20480;-73
2023/12/05 20:47:34;;;;;;;49.00;35.20;;;;;;;2.48;100.00;100746.00;5250103;28;20444;-74
2023/12/05 20:50:06;;;;;;;47.93;35.87;;;;;;;2.34;100.00;100748.97;5257770;28;20411;-74
2023/12/05 20:52:37;;;;;;;49.00;36.13;;;;;;;2.42;100.00;100742.72;5267701;28;20041;-74
2023/12/05 20:55:08;;;;;;;49.17;35.97;;;;;;;2.45;100.00;100751.25;5264472;28;20101;-72
2023/12/05 20:57:40;;;;;;;48.63;34.80;;;;;;;2.42;100.00;100755.63;5266456;28;20479;-73
2023/12/05 21:00:11;;;;;;;46.70;34.80;;;;;;;2.35;100.00;100756.69;5265454;28;20056;-74
2023/12/05 21:02:43;;;;;;;45.10;34.57;;;;;;;2.22;100.00;100761.31;5267493;28;20414;-74
2023/12/05 21:05:14;;;;;;;48.20;35.53;;;;;;;2.35;100.00;100774.78;5265783;28;20099;-76
2023/12/05 21:07:48;;;;;;;47.37;36.83;;;;;;;2.33;100.00;100773.97;5272224;28;20024;-75
2023/12/05 21:10:20;;;;;;;44.92;34.33;;;;;;;2.28;100.00;100771.50;5268140;28;20130;-73
2023/12/05 21:12:51;;;;;;;49.57;37.17;;;;;;;2.42;100.00;100778.91;5268005;28;20131;-75
2023/12/05 21:15:22;;;;;;;48.30;36.87;;;;;;;2.49;100.00;100776.13;5264913;28;20052;-72
2023/12/05 21:17:53;;;;;;;49.73;36.87;;;;;;;2.26;100.00;100772.41;5269388;28;20036;-76
2023/12/05 21:20:25;;;;;;;49.70;37.50;;;;;;;2.49;100.00;100784.75;5267671;28;20021;-70
2023/12/05 21:22:59;;;;;;;48.47;37.67;;;;;;;2.47;100.00;100786.53;5272511;28;20042;-76
2023/12/05 21:25:30;;;;;;;46.88;35.47;;;;;;;2.37;100.00;100777.31;5268568;28;20062;-72
2023/12/05 21:28:04;;;;;;;46.93;35.60;;;;;;;2.21;100.00;100771.69;5264144;28;20024;-74
2023/12/05 21:30:36;;;;;;;42.92;34.97;;;;;;;2.30;100.00;100779.22;5270305;28;20024;-70
2023/12/05 21:33:07;;;;;;;42.57;35.13;;;;;;;2.36;100.00;100779.03;5266584;28;20086;-72
2023/12/05 21:35:38;;;;;;;46.00;36.07;;;;;;;2.28;100.00;100789.59;5268974;28;20029;-74
2023/12/05 21:38:10;;;;;;;44.37;36.30;;;;;;;2.22;100.00;100794.91;5271565;28;20064;-78
2023/12/05 21:40:41;;;;;;;42.20;32.80;;;;;;;2.18;100.00;100796.72;5264124;28;20033;-72
2023/12/05 21:43:12;;;;;;;41.83;34.20;;;;;;;2.19;100.00;100792.41;5266065;28;20028;-74
2023/12/05 21:45:44;;;;;;;41.37;33.83;;;;;;;2.14;100.00;100791.69;5264092;28;20051;-74
2023/12/05 21:48:15;;;;;;;44.63;34.40;;;;;;;2.20;100.00;100803.59;5271168;28;20493;-75
2023/12/05 21:50:46;;;;;;;43.80;35.17;;;;;;;2.38;100.00;100808.28;5272542;28;20787;-77
2023/12/05 21:53:18;;;;;;;43.50;33.33;;;;;;;2.29;100.00;100811.09;5265522;28;20183;-78
2023/12/05 21:55:49;;;;;;;41.67;33.93;;;;;;;2.25;100.00;100804.34;5267413;28;20071;-78
2023/12/05 21:58:20;;;;;;;43.33;33.40;;;;;;;2.21;100.00;100806.16;5264687;28;20047;-73
2023/12/05 22:00:51;;;;;;;42.57;33.30;;;;;;;2.20;100.00;100811.34;5241603;28;20093;-73
2023/12/05 22:03:23;;;;;;;43.17;34.57;;;;;;;2.24;100.00;100810.38;5274479;28;20032;-76
2023/12/05 22:05:54;;;;;;;43.27;34.67;;;;;;;2.15;100.00;100819.19;5269856;28;20064;-77
2023/12/05 22:08:25;;;;;;;43.33;34.80;;;;;;;2.27;100.00;100811.16;5278732;28;20029;-77
2023/12/05 22:10:59;;;;;;;40.90;33.70;;;;;;;2.35;100.00;100828.19;5279591;28;20020;-73
2023/12/05 22:13:31;;;;;;;41.03;33.00;;;;;;;2.33;100.00;100833.41;5283806;28;20066;-72
2023/12/05 22:16:03;;;;;;;39.07;33.50;;;;;;;2.25;100.00;100827.59;5281431;28;20505;-73
2023/12/05 22:18:35;;;;;;;41.63;34.40;;;;;;;2.41;100.00;100833.19;5272599;28;20033;-74
2023/12/05 22:21:06;;;;;;;38.23;32.53;;;;;;;2.39;100.00;100835.00;5274883;28;20029;-76
2023/12/05 22:23:40;;;;;;;39.13;32.30;;;;;;;2.29;100.00;100844.69;5271443;28;20040;-72
2023/12/05 22:26:15;;;;;;;41.38;33.17;;;;;;;2.22;100.00;100825.91;5265537;28;20480;-75
2023/12/05 22:28:47;;;;;;;39.47;32.60;;;;;;;2.30;100.00;100846.41;5268161;28;21369;-73
2023/12/05 22:31:22;;;;;;;39.60;32.83;;;;;;;2.44;100.00;100843.47;5271698;28;20104;-72
2023/12/05 22:33:54;;;;;;;38.17;30.73;;;;;;;2.34;100.00;100844.59;5272662;28;20040;-75
2023/12/05 22:36:25;;;;;;;39.87;31.00;;;;;;;2.23;100.00;100853.47;5283973;28;20021;-78
2023/12/05 22:38:57;;;;;;;39.50;32.00;;;;;;;2.39;100.00;100855.69;5262566;28;20056;-75
2023/12/05 22:41:28;;;;;;;36.20;30.67;;;;;;;2.31;100.00;100858.44;5278805;28;20021;-78
2023/12/05 22:44:00;;;;;;;37.33;31.20;;;;;;;2.35;100.00;100854.06;5280142;28;20032;-74
2023/12/05 22:46:31;;;;;;;38.40;30.93;;;;;;;2.41;100.00;100859.03;5258025;28;20407;-71
2023/12/05 22:49:02;;;;;;;38.57;30.97;;;;;;;2.35;100.00;100844.56;5260360;28;20032;-76
